Time;durP1;ratioP1;P1;durP2;ratioP2;P2;SDS_P1;SDS_P2;PMS_P1;PMS_P2;Temp;Humidity;BMP_temperature;BMP_pressure;BME280_temperature;BME280_humidity;BME280_pressure;Samples;Min_cycle;Max_cycle;Signal;HPM_P1;HPM_P2
2023/10/30 00:01:16;;;;;;;;;;;;;;;11.78;73.01;99831.41;5035425;28;19920;-69
2023/10/30 00:03:41;;;;;;;;;;;;;;;11.54;73.87;99830.00;5019968;28;19917;-70
2023/10/30 00:06:07;;;;;;;;;;;;;;;11.49;74.91;99825.38;5015105;28;19928;-69
2023/10/30 00:08:32;;;;;;;;;;;;;;;11.17;76.09;99827.59;5015179;28;19917;-69
2023/10/30 00:10:58;;;;;;;;;;;;;;;11.10;76.89;99827.25;5022497;28;19917;-69
2023/10/30 00:13:23;;;;;;;;;;;;;;;11.17;76.18;99826.75;5020567;28;19917;-69
2023/10/30 00:15:48;;;;;;;;;;;;;;;11.24;75.37;99825.09;5015430;28;19913;-69
2023/10/30 00:18:14;;;;;;;;;;;;;;;11.38;74.65;99821.28;5015042;28;20319;-69
2023/10/30 00:20:39;;;;;;;;;;;;;;;11.24;74.75;99821.47;5017259;28;19914;-68
2023/10/30 00:23:04;;;;;;;;;;;;;;;11.48;74.03;99814.53;5023698;28;20333;-69
2023/10/30 00:25:30;;;;;;;;;;;;;;;11.69;72.53;99819.41;5030382;28;19925;-69
2023/10/30 00:27:59;;;;;;;;;;;;;;;11.20;73.32;99818.50;5015071;28;19913;-69
2023/10/30 00:30:25;;;;;;;;;;;;;;;11.08;72.95;99816.38;5034716;28;20368;-69
2023/10/30 00:32:50;;;;;;;;;;;;;;;11.11;73.61;99820.50;5033221;28;19926;-69
2023/10/30 00:35:15;;;;;;;;;;;;;;;10.82;74.18;99824.78;5034593;28;19936;-69
2023/10/30 00:37:40;;;;;;;;;;;;;;;10.76;75.26;99815.72;5034686;28;20392;-69
2023/10/30 00:40:06;;;;;;;;;;;;;;;10.43;76.30;99821.75;5030818;28;19913;-69
2023/10/30 00:42:31;;;;;;;;;;;;;;;10.54;75.89;99825.06;5030292;28;19917;-69
2023/10/30 00:44:57;;;;;;;;;;;;;;;10.33;76.53;99822.03;5033487;28;19918;-69
2023/10/30 00:47:22;;;;;;;;;;;;;;;10.27;77.41;99820.53;5033189;28;20410;-69
2023/10/30 00:49:47;;;;;;;;;;;;;;;10.51;77.21;99814.53;5030042;28;19975;-69
2023/10/30 00:52:13;;;;;;;;;;;;;;;10.73;75.46;99819.16;5032378;28;20502;-69
2023/10/30 00:54:38;;;;;;;;;;;;;;;10.89;73.77;99818.69;5034420;28;19913;-69
2023/10/30 00:57:03;;;;;;;;;;;;;;;10.62;76.07;99812.25;5034575;28;20380;-69
2023/10/30 00:59:29;;;;;;;;;;;;;;;10.86;75.71;99822.13;5034292;28;19935;-69
2023/10/30 01:01:54;;;;;;;;;;;;;;;10.95;75.10;99822.97;5031843;28;19928;-69
2023/10/30 01:04:19;;;;;;;;;;;;;;;10.94;74.32;99819.34;5032752;28;19920;-69
2023/10/30 01:06:45;;;;;;;;;;;;;;;10.60;76.55;99825.72;5031767;28;19999;-69
2023/10/30 01:09:11;;;;;;;;;;;;;;;10.51;77.33;99820.97;5031680;28;19913;-69
2023/10/30 01:11:37;;;;;;;;;;;;;;;10.69;76.14;99820.16;5022894;28;19924;-68
2023/10/30 01:14:02;;;;;;;;;;;;;;;10.94;75.11;99822.16;5034017;28;19921;-69
2023/10/30 01:16:28;;;;;;;;;;;;;;;10.93;74.92;99826.09;5033225;28;19936;-69
2023/10/30 01:18:53;;;;;;;;;;;;;;;11.11;74.35;99833.69;5034419;28;19921;-69
2023/10/30 01:21:20;;;;;;;;;;;;;;;11.32;74.13;99837.44;5032362;28;19913;-69
2023/10/30 01:23:45;;;;;;;;;;;;;;;11.28;72.99;99836.47;5033704;28;19924;-69
2023/10/30 01:26:11;;;;;;;;;;;;;;;11.48;71.88;99834.13;5024499;28;19921;-69
2023/10/30 01:28:36;;;;;;;;;;;;;;;11.35;71.56;99838.75;5014051;28;19924;-69
2023/10/30 01:31:01;;;;;;;;;;;;;;;11.27;71.08;99834.81;5030683;28;20369;-69
2023/10/30 01:33:27;;;;;;;;;;;;;;;11.07;72.43;99841.91;5033659;28;19927;-69
2023/10/30 01:35:52;;;;;;;;;;;;;;;10.77;72.55;99848.16;5033646;28;19933;-69
2023/10/30 01:38:17;;;;;;;;;;;;;;;10.91;72.67;99845.19;5033608;28;20304;-69
2023/10/30 01:40:49;;;;;;;;;;;;;;;11.24;72.14;99844.69;5029651;28;19917;-69
2023/10/30 01:43:15;;;;;;;;;;;;;;;11.11;71.83;99844.88;5033489;28;19944;-68
2023/10/30 01:45:40;;;;;;;;;;;;;;;10.58;74.65;99839.22;5033143;28;19952;-69
2023/10/30 01:48:06;;;;;;;;;;;;;;;10.67;75.10;99840.06;5033210;28;19924;-69
2023/10/30 01:50:31;;;;;;;;;;;;;;;10.78;75.07;99843.34;5031873;28;19924;-69
2023/10/30 01:52:59;;;;;;;;;;;;;;;10.62;75.89;99823.44;5031507;28;20503;-69
2023/10/30 01:55:24;;;;;;;;;;;;;;;10.52;77.13;99828.19;5032239;28;20332;-69
2023/10/30 01:57:50;;;;;;;;;;;;;;;10.38;77.95;99824.69;5022570;28;19918;-68
2023/10/30 02:00:15;;;;;;;;;;;;;;;10.38;77.63;99828.28;5022189;28;19917;-68
2023/10/30 02:02:41;;;;;;;;;;;;;;;10.27;78.84;99826.13;5018490;28;20016;-69
2023/10/30 02:05:10;;;;;;;;;;;;;;;10.28;78.64;99838.97;5013188;28;19925;-69
2023/10/30 02:07:36;;;;;;;;;;;;;;;10.19;79.23;99839.75;5028546;28;19913;-69
2023/10/30 02:10:03;;;;;;;;;;;;;;;10.33;78.41;99827.63;5011914;28;19936;-69
2023/10/30 02:12:28;;;;;;;;;;;;;;;10.43;77.95;99835.75;5023131;28;20406;-69
2023/10/30 02:14:53;;;;;;;;;;;;;;;10.41;78.21;99835.25;5013187;28;19953;-69
2023/10/30 02:17:18;;;;;;;;;;;;;;;10.35;78.15;99836.50;5023594;28;19917;-68
2023/10/30 02:19:44;;;;;;;;;;;;;;;10.24;78.53;99833.19;5032777;28;20011;-70
2023/10/30 02:22:09;;;;;;;;;;;;;;;10.42;78.15;99836.88;5028029;28;19940;-69
2023/10/30 02:24:34;;;;;;;;;;;;;;;10.52;78.46;99839.38;5011578;28;19920;-69
2023/10/30 02:27:01;;;;;;;;;;;;;;;10.53;77.50;99843.00;5013049;28;19914;-68
2023/10/30 02:29:26;;;;;;;;;;;;;;;10.39;78.63;99843.91;5012648;28;19917;-70
2023/10/30 02:31:51;;;;;;;;;;;;;;;10.33;79.39;99839.63;5022090;28;20350;-69
2023/10/30 02:34:17;;;;;;;;;;;;;;;10.17;80.40;99849.59;5031196;28;19913;-69
2023/10/30 02:36:42;;;;;;;;;;;;;;;10.28;80.70;99845.34;5032599;28;19913;-69
2023/10/30 02:39:08;;;;;;;;;;;;;;;10.25;79.87;99851.59;5032485;28;19913;-69
2023/10/30 02:41:33;;;;;;;;;;;;;;;10.20;80.21;99841.38;5027573;28;19928;-69
2023/10/30 02:43:59;;;;;;;;;;;;;;;9.86;81.71;99850.47;5011411;28;20001;-68
2023/10/30 02:46:24;;;;;;;;;;;;;;;9.74;82.49;99849.09;5017454;28;19921;-69
2023/10/30 02:48:50;;;;;;;;;;;;;;;9.58;83.20;99845.03;5012420;28;19921;-69
2023/10/30 02:51:15;;;;;;;;;;;;;;;9.48;83.95;99858.13;5013618;28;19949;-69
2023/10/30 02:53:41;;;;;;;;;;;;;;;9.28;85.50;99848.28;5032203;28;19917;-69
2023/10/30 02:56:06;;;;;;;;;;;;;;;9.39;85.71;99849.69;5030859;28;19913;-69
2023/10/30 02:58:31;;;;;;;;;;;;;;;9.37;85.95;99862.31;5030932;28;19917;-69
2023/10/30 03:00:57;;;;;;;;;;;;;;;9.38;85.43;99855.59;5029998;28;19913;-69
2023/10/30 03:03:22;;;;;;;;;;;;;;;9.24;85.89;99855.66;5012594;28;19925;-69
2023/10/30 03:05:48;;;;;;;;;;;;;;;9.34;85.67;99855.41;5027451;28;19924;-69
2023/10/30 03:08:14;;;;;;;;;;;;;;;9.16;86.14;99859.19;5031091;28;19983;-69
2023/10/30 03:10:39;;;;;;;;;;;;;;;9.06;86.79;99858.31;5031957;28;19956;-69
2023/10/30 03:13:04;;;;;;;;;;;;;;;9.02;86.27;99851.69;5044092;28;19959;-70
2023/10/30 03:15:30;;;;;;;;;;;;;;;8.96;87.55;99852.97;5030803;28;19921;-69
2023/10/30 03:17:55;;;;;;;;;;;;;;;9.00;87.27;99856.75;5012237;28;20399;-69
2023/10/30 03:20:20;;;;;;;;;;;;;;;9.00;86.91;99856.75;5039172;28;19913;-69
2023/10/30 03:22:45;;;;;;;;;;;;;;;8.94;86.88;99858.84;5026421;28;19968;-69
2023/10/30 03:25:11;;;;;;;;;;;;;;;8.95;86.74;99852.13;5011931;28;19918;-69
2023/10/30 03:27:36;;;;;;;;;;;;;;;8.85;87.69;99853.19;5012622;28;20002;-69
2023/10/30 03:30:03;;;;;;;;;;;;;;;8.95;86.38;99845.75;5025881;28;20328;-70
2023/10/30 03:32:28;;;;;;;;;;;;;;;8.75;88.32;99852.59;5031360;28;19917;-69
2023/10/30 03:34:54;;;;;;;;;;;;;;;8.80;88.29;99850.50;5031732;28;19928;-69
2023/10/30 03:37:19;;;;;;;;;;;;;;;8.77;88.50;99856.72;5026530;28;19914;-69
2023/10/30 03:39:45;;;;;;;;;;;;;;;8.75;88.35;99852.59;5014218;28;20787;-69
2023/10/30 03:42:10;;;;;;;;;;;;;;;8.94;86.56;99852.47;5031572;28;19917;-69
2023/10/30 03:44:36;;;;;;;;;;;;;;;8.87;86.60;99852.06;5029253;28;20032;-69
2023/10/30 03:47:01;;;;;;;;;;;;;;;8.92;87.49;99857.50;5030160;28;20373;-69
2023/10/30 03:49:26;;;;;;;;;;;;;;;8.71;88.22;99858.00;5031468;28;20408;-69
2023/10/30 03:51:52;;;;;;;;;;;;;;;8.71;88.12;99855.19;5026769;28;19917;-69
2023/10/30 03:54:17;;;;;;;;;;;;;;;8.77;87.97;99851.13;5013373;28;20456;-69
2023/10/30 03:56:43;;;;;;;;;;;;;;;8.80;87.95;99855.28;5027465;28;20367;-69
2023/10/30 03:59:09;;;;;;;;;;;;;;;8.69;88.51;99849.94;5030632;28;19917;-69
2023/10/30 04:01:35;;;;;;;;;;;;;;;8.60;89.30;99853.78;5029228;28;19921;-69
2023/10/30 04:04:01;;;;;;;;;;;;;;;8.61;89.51;99863.78;5030322;28;20406;-69
2023/10/30 04:06:26;;;;;;;;;;;;;;;8.55;89.76;99855.50;5031272;28;20002;-69
2023/10/30 04:08:51;;;;;;;;;;;;;;;8.66;89.40;99856.13;5031297;28;19913;-69
2023/10/30 04:11:17;;;;;;;;;;;;;;;8.63;89.87;99861.50;5027814;28;19984;-69
2023/10/30 04:13:43;;;;;;;;;;;;;;;8.73;88.22;99855.72;5011114;28;19913;-70
2023/10/30 04:16:14;;;;;;;;;;;;;;;8.61;89.47;99858.22;5011519;28;19972;-69
2023/10/30 04:18:39;;;;;;;;;;;;;;;8.66;89.65;99853.34;5011658;28;19952;-69
2023/10/30 04:21:05;;;;;;;;;;;;;;;8.70;90.25;99859.94;5022269;28;19952;-69
2023/10/30 04:23:30;;;;;;;;;;;;;;;8.80;89.94;99866.44;5029992;28;19975;-69
2023/10/30 04:25:55;;;;;;;;;;;;;;;8.66;91.00;99867.28;5031111;28;20403;-69
2023/10/30 04:28:21;;;;;;;;;;;;;;;8.73;90.47;99858.50;5030692;28;20388;-70
2023/10/30 04:30:46;;;;;;;;;;;;;;;8.70;90.67;99867.50;5030742;28;20369;-69
2023/10/30 04:33:11;;;;;;;;;;;;;;;8.84;89.95;99870.25;5031219;28;19925;-69
2023/10/30 04:35:36;;;;;;;;;;;;;;;8.76;89.75;99863.44;5031139;28;19936;-69
2023/10/30 04:38:02;;;;;;;;;;;;;;;8.84;88.98;99871.06;5031110;28;19913;-69
2023/10/30 04:40:27;;;;;;;;;;;;;;;8.75;90.03;99869.31;5032946;28;19959;-69
2023/10/30 04:42:52;;;;;;;;;;;;;;;8.82;89.52;99864.16;5034405;28;20027;-69
2023/10/30 04:45:18;;;;;;;;;;;;;;;8.94;89.99;99863.63;5027181;28;20312;-70
2023/10/30 04:47:43;;;;;;;;;;;;;;;9.01;89.45;99858.41;5034522;28;19961;-69
2023/10/30 04:50:09;;;;;;;;;;;;;;;9.10;89.63;99859.31;5034364;28;20391;-69
2023/10/30 04:52:34;;;;;;;;;;;;;;;9.18;89.49;99859.72;5033171;28;19913;-69
2023/10/30 04:54:59;;;;;;;;;;;;;;;9.24;88.53;99867.66;5034504;28;19913;-69
2023/10/30 04:57:24;;;;;;;;;;;;;;;9.39;88.55;99882.38;5033037;28;19919;-69
2023/10/30 04:59:50;;;;;;;;;;;;;;;9.39;87.73;99883.19;5026275;28;19917;-69
2023/10/30 05:02:15;;;;;;;;;;;;;;;9.43;87.39;99877.78;5034298;28;19920;-69
2023/10/30 05:04:40;;;;;;;;;;;;;;;9.45;87.56;99869.91;5032860;28;19913;-69
2023/10/30 05:07:06;;;;;;;;;;;;;;;9.49;87.54;99870.09;5032734;28;19921;-69
2023/10/30 05:09:31;;;;;;;;;;;;;;;9.46;87.75;99876.34;5032688;28;20004;-69
2023/10/30 05:11:56;;;;;;;;;;;;;;;9.38;88.84;99875.94;5021664;28;20366;-73
2023/10/30 05:14:22;;;;;;;;;;;;;;;9.50;88.01;99874.56;5026051;28;19917;-74
2023/10/30 05:16:47;;;;;;;;;;;;;;;9.59;87.83;99881.03;5027892;28;20384;-74
2023/10/30 05:19:12;;;;;;;;;;;;;;;9.67;86.97;99883.06;5014395;28;19945;-74
2023/10/30 05:21:38;;;;;;;;;;;;;;;9.61;87.56;99875.94;5028974;28;19948;-74
2023/10/30 05:24:03;;;;;;;;;;;;;;;9.51;87.52;99893.78;5025201;28;19921;-73
2023/10/30 05:26:28;;;;;;;;;;;;;;;9.50;88.15;99888.50;5012648;28;19929;-73
2023/10/30 05:28:54;;;;;;;;;;;;;;;9.46;87.59;99890.31;5012868;28;19940;-74
2023/10/30 05:31:19;;;;;;;;;;;;;;;9.54;87.26;99895.13;5021367;28;19919;-74
2023/10/30 05:33:44;;;;;;;;;;;;;;;9.39;87.82;99888.75;5012667;28;19917;-74
2023/10/30 05:36:10;;;;;;;;;;;;;;;9.41;87.75;99891.25;5012729;28;19914;-74
2023/10/30 05:38:35;;;;;;;;;;;;;;;9.50;87.72;99899.69;5019862;28;19963;-74
2023/10/30 05:41:00;;;;;;;;;;;;;;;9.53;87.99;99899.03;5025954;28;19956;-71
2023/10/30 05:43:27;;;;;;;;;;;;;;;9.62;87.89;99899.94;5033463;28;19917;-74
2023/10/30 05:45:53;;;;;;;;;;;;;;;9.75;87.46;99906.59;5033465;28;19917;-73
2023/10/30 05:48:19;;;;;;;;;;;;;;;9.82;86.94;99900.56;5032983;28;19913;-70
2023/10/30 05:50:44;;;;;;;;;;;;;;;9.96;87.03;99906.88;5028254;28;20356;-73
2023/10/30 05:53:09;;;;;;;;;;;;;;;9.90;86.52;99905.38;5029221;28;20027;-70
2023/10/30 05:55:34;;;;;;;;;;;;;;;9.94;87.15;99911.97;5028271;28;20311;-71
2023/10/30 05:58:00;;;;;;;;;;;;;;;10.04;86.56;99912.84;5030783;28;19921;-71
2023/10/30 06:00:25;;;;;;;;;;;;;;;10.16;86.52;99907.50;5028535;28;19917;-74
2023/10/30 06:02:51;;;;;;;;;;;;;;;10.27;86.59;99913.59;5032609;28;19917;-74
2023/10/30 06:05:16;;;;;;;;;;;;;;;10.33;86.20;99919.88;5029953;28;19921;-73
2023/10/30 06:07:42;;;;;;;;;;;;;;;10.45;86.18;99916.53;5030035;28;20063;-73
2023/10/30 06:10:10;;;;;;;;;;;;;;;10.70;85.57;99923.34;5024567;28;19921;-73
2023/10/30 06:12:37;;;;;;;;;;;;;;;10.86;84.40;99914.47;5030662;28;19924;-72
2023/10/30 06:15:04;;;;;;;;;;;;;;;10.99;83.56;99924.72;5029054;28;20335;-73
2023/10/30 06:17:29;;;;;;;;;;;;;;;10.99;84.38;99926.69;5025524;28;20036;-73
2023/10/30 06:19:55;;;;;;;;;;;;;;;10.97;84.24;99929.81;5031609;28;19948;-72
2023/10/30 06:22:21;;;;;;;;;;;;;;;11.17;83.15;99928.38;5026948;28;19913;-72
2023/10/30 06:24:46;;;;;;;;;;;;;;;11.15;83.17;99932.66;5030463;28;19917;-72
2023/10/30 06:27:11;;;;;;;;;;;;;;;11.35;82.62;99931.16;5031240;28;20336;-73
2023/10/30 06:29:37;;;;;;;;;;;;;;;11.35;82.75;99932.00;5031122;28;19917;-73
2023/10/30 06:32:02;;;;;;;;;;;;;;;11.58;82.30;99923.41;5023909;28;19939;-71
2023/10/30 06:34:28;;;;;;;;;;;;;;;11.68;81.32;99932.63;5023174;28;19917;-72
2023/10/30 06:36:53;;;;;;;;;;;;;;;11.65;81.58;99929.34;5021060;28;20027;-74
2023/10/30 06:39:20;;;;;;;;;;;;;;;11.97;80.56;99931.13;5029046;28;19925;-71
2023/10/30 06:41:46;;;;;;;;;;;;;;;11.88;80.17;99923.56;5026861;28;20004;-72
2023/10/30 06:44:11;;;;;;;;;;;;;;;12.12;79.80;99922.19;5020190;28;20672;-74
2023/10/30 06:46:36;;;;;;;;;;;;;;;12.33;78.28;99922.28;5021221;28;19917;-72
2023/10/30 06:49:02;;;;;;;;;;;;;;;12.45;77.92;99924.41;5017013;28;19976;-71
2023/10/30 06:51:27;;;;;;;;;;;;;;;12.37;77.94;99919.63;5029228;28;20034;-73
2023/10/30 06:53:52;;;;;;;;;;;;;;;12.41;77.68;99923.41;5027724;28;19929;-73
2023/10/30 06:56:17;;;;;;;;;;;;;;;12.48;77.45;99923.72;5013918;28;20000;-72
2023/10/30 06:58:43;;;;;;;;;;;;;;;12.75;76.85;99924.41;5022093;28;19921;-72
2023/10/30 07:01:08;;;;;;;;;;;;;;;12.93;75.45;99927.13;5025917;28;19917;-73
2023/10/30 07:03:34;;;;;;;;;;;;;;;12.89;75.36;99912.09;5022746;28;19921;-72
2023/10/30 07:06:00;;;;;;;;;;;;;;;13.13;74.01;99919.03;5021315;28;19978;-72
2023/10/30 07:08:25;;;;;;;;;;;;;;;13.30;73.31;99923.72;5016596;28;19925;-74
2023/10/30 07:10:51;;;;;;;;;;;;;;;13.26;73.07;99923.56;5012407;28;19921;-71
2023/10/30 07:13:17;;;;;;;;;;;;;;;13.57;72.16;99924.34;5019050;28;19921;-71
2023/10/30 07:15:42;;;;;;;;;;;;;;;13.71;71.00;99933.31;5012746;28;19917;-70
2023/10/30 07:18:07;;;;;;;;;;;;;;;13.83;70.53;99921.28;5008012;28;19940;-71
2023/10/30 07:20:32;;;;;;;;;;;;;;;14.00;70.49;99925.09;5013964;28;19913;-72
2023/10/30 07:22:58;;;;;;;;;;;;;;;14.11;70.12;99931.91;5021858;28;20061;-70
2023/10/30 07:25:23;;;;;;;;;;;;;;;14.27;69.62;99940.50;5025928;28;19940;-72
2023/10/30 07:27:48;;;;;;;;;;;;;;;14.41;68.40;99934.56;5027244;28;19924;-71
2023/10/30 07:30:14;;;;;;;;;;;;;;;14.48;67.46;99922.72;5019281;28;20039;-73
2023/10/30 07:32:40;;;;;;;;;;;;;;;14.79;66.76;99923.34;5029011;28;19920;-70
2023/10/30 07:35:06;;;;;;;;;;;;;;;14.93;67.08;99915.34;5022731;28;20336;-70
2023/10/30 07:37:32;;;;;;;;;;;;;;;15.01;66.58;99913.56;5009532;28;20319;-71
2023/10/30 07:39:57;;;;;;;;;;;;;;;15.05;65.98;99911.69;5013739;28;19921;-71
2023/10/30 07:42:22;;;;;;;;;;;;;;;15.21;65.40;99902.50;5015605;28;19960;-70
2023/10/30 07:44:47;;;;;;;;;;;;;;;15.51;65.12;99907.81;5016418;28;19917;-70
2023/10/30 07:47:13;;;;;;;;;;;;;;;15.63;64.33;99896.50;5017848;28;19921;-72
2023/10/30 07:49:38;;;;;;;;;;;;;;;15.81;63.62;99907.44;5019634;28;19969;-71
2023/10/30 07:52:03;;;;;;;;;;;;;;;15.89;63.23;99900.84;5027429;28;20008;-71
2023/10/30 07:54:29;;;;;;;;;;;;;;;16.04;62.67;99902.06;5025136;28;19925;-72
2023/10/30 07:56:54;;;;;;;;;;;;;;;16.44;61.77;99899.47;5019448;28;20052;-70
2023/10/30 07:59:19;;;;;;;;;;;;;;;16.53;61.10;99891.59;5026943;28;20016;-71
2023/10/30 08:01:45;;;;;;;;;;;;;;;16.77;60.74;99895.41;5022075;28;19932;-71
2023/10/30 08:04:10;;;;;;;;;;;;;;;16.85;60.09;99885.91;5024079;28;20011;-70
2023/10/30 08:06:36;;;;;;;;;;;;;;;17.12;59.30;99900.28;5013238;28;20342;-72
2023/10/30 08:09:01;;;;;;;;;;;;;;;17.30;58.61;99892.19;5023128;28;19918;-72
2023/10/30 08:11:27;;;;;;;;;;;;;;;17.39;57.92;99889.97;5021212;28;19929;-69
2023/10/30 08:13:52;;;;;;;;;;;;;;;17.42;58.10;99888.41;5025212;28;19917;-69
2023/10/30 08:16:18;;;;;;;;;;;;;;;17.11;58.61;99892.97;5026600;28;19925;-70
2023/10/30 08:18:43;;;;;;;;;;;;;;;17.42;58.82;99885.59;5026947;28;20501;-68
2023/10/30 08:21:08;;;;;;;;;;;;;;;17.65;58.35;99890.50;5028896;28;19928;-68
2023/10/30 08:23:37;;;;;;;;;;;;;;;17.75;57.62;99891.88;5030796;28;19917;-71
2023/10/30 08:26:08;;;;;;;;;;;;;;;17.88;57.18;99884.06;5012685;28;19926;-69
2023/10/30 08:28:34;;;;;;;;;;;;;;;18.04;56.51;99887.63;5016194;28;20319;-68
2023/10/30 08:30:59;;;;;;;;;;;;;;;18.04;56.78;99886.78;5012689;28;19918;-70
2023/10/30 08:33:24;;;;;;;;;;;;;;;18.10;56.91;99890.97;5011930;28;19940;-69
2023/10/30 08:35:50;;;;;;;;;;;;;;;17.87;58.38;99888.09;5019017;28;19944;-71
2023/10/30 08:38:15;;;;;;;;;;;;;;;18.04;58.09;99881.97;5019970;28;19914;-70
2023/10/30 08:40:40;;;;;;;;;;;;;;;18.07;57.87;99886.88;5029565;28;19956;-73
2023/10/30 08:43:08;;;;;;;;;;;;;;;18.45;56.86;99883.47;5034185;28;19920;-71
2023/10/30 08:45:33;;;;;;;;;;;;;;;18.76;56.02;99879.53;5026787;28;20458;-72
2023/10/30 08:48:02;;;;;;;;;;;;;;;19.02;55.14;99875.09;5027022;28;19989;-73
2023/10/30 08:50:27;;;;;;;;;;;;;;;18.44;56.00;99876.16;5033916;28;19928;-71
2023/10/30 08:52:53;;;;;;;;;;;;;;;18.37;56.67;99871.19;5034254;28;19913;-73
2023/10/30 08:55:18;;;;;;;;;;;;;;;18.66;56.83;99869.66;5033087;28;20383;-74
2023/10/30 08:57:46;;;;;;;;;;;;;;;19.02;55.21;99868.59;5032768;28;20011;-69
2023/10/30 09:00:12;;;;;;;;;;;;;;;18.89;55.25;99867.97;5032848;28;20024;-71
2023/10/30 09:02:38;;;;;;;;;;;;;;;18.83;55.83;99866.66;5028824;28;20420;-72
2023/10/30 09:05:05;;;;;;;;;;;;;;;18.67;56.13;99862.78;5048097;28;19921;-70
2023/10/30 09:07:31;;;;;;;;;;;;;;;18.73;56.28;99873.81;5027512;28;19925;-70
2023/10/30 09:09:56;;;;;;;;;;;;;;;19.17;55.11;99858.28;5013012;28;19932;-73
2023/10/30 09:12:23;;;;;;;;;;;;;;;19.47;54.05;99854.59;5026820;28;20015;-74
2023/10/30 09:14:49;;;;;;;;;;;;;;;19.78;53.09;99856.16;5023163;28;20377;-74
2023/10/30 09:17:15;;;;;;;;;;;;;;;19.91;52.34;99853.88;5043190;28;19931;-74
2023/10/30 09:19:41;;;;;;;;;;;;;;;19.73;52.52;99853.69;5023917;28;19917;-75
2023/10/30 09:22:08;;;;;;;;;;;;;;;20.15;52.52;99854.53;5025218;28;19925;-71
2023/10/30 09:24:33;;;;;;;;;;;;;;;20.50;51.23;99852.38;5019940;28;20016;-74
2023/10/30 09:26:59;;;;;;;;;;;;;;;20.83;50.74;99847.78;5028236;28;20004;-73
2023/10/30 09:29:25;;;;;;;;;;;;;;;20.93;50.30;99845.41;5023828;28;20293;-73
2023/10/30 09:31:50;;;;;;;;;;;;;;;20.48;50.28;99846.28;5013824;28;19925;-73
2023/10/30 09:34:16;;;;;;;;;;;;;;;20.48;49.91;99843.44;5019465;28;19917;-72
2023/10/30 09:36:41;;;;;;;;;;;;;;;20.88;49.59;99841.72;5033059;28;19996;-74
2023/10/30 09:39:07;;;;;;;;;;;;;;;20.08;50.97;99837.41;5014112;28;20313;-73
2023/10/30 09:41:38;;;;;;;;;;;;;;;19.99;51.74;99828.44;5017985;28;20422;-73
2023/10/30 09:44:06;;;;;;;;;;;;;;;20.22;51.17;99831.06;5025696;28;19921;-71
2023/10/30 09:46:32;;;;;;;;;;;;;;;20.43;50.11;99821.09;5029865;28;19928;-71
2023/10/30 09:48:59;;;;;;;;;;;;;;;20.70;50.25;99823.72;5032990;28;19921;-71
2023/10/30 09:51:26;;;;;;;;;;;;;;;20.97;49.82;99823.47;5032886;28;19955;-72
2023/10/30 09:53:53;;;;;;;;;;;;;;;20.97;49.23;99820.63;5025300;28;19921;-71
2023/10/30 09:56:19;;;;;;;;;;;;;;;21.13;47.94;99818.31;5027655;28;19925;-73
2023/10/30 09:58:44;;;;;;;;;;;;;;;20.44;49.39;99805.69;5019704;28;20315;-70
2023/10/30 10:01:09;;;;;;;;;;;;;;;20.72;49.49;99804.22;5025616;28;19924;-73
2023/10/30 10:03:35;;;;;;;;;;;;;;;21.06;47.95;99798.34;5015016;28;20000;-73
2023/10/30 10:06:00;;;;;;;;;;;;;;;21.51;48.05;99811.53;5012843;28;19917;-74
2023/10/30 10:08:29;;;;;;;;;;;;;;;21.26;47.01;99798.03;5015691;28;19975;-71
2023/10/30 10:11:05;;;;;;;;;;;;;;;21.44;47.58;99792.41;5027130;28;19928;-72
2023/10/30 10:13:33;;;;;;;;;;;;;;;21.52;46.58;99790.41;5031645;28;20028;-74
2023/10/30 10:16:00;;;;;;;;;;;;;;;21.70;46.39;99782.72;5020462;28;19976;-74
2023/10/30 10:18:32;;;;;;;;;;;;;;;21.98;46.25;99780.31;5025530;28;19924;-75
2023/10/30 10:21:11;;;;;;;;;;;;;;;21.82;45.80;99777.84;5033109;28;20004;-73
2023/10/30 10:23:40;;;;;;;;;;;;;;;22.01;45.38;99768.09;5030815;28;19956;-74
2023/10/30 10:26:13;;;;;;;;;;;;;;;22.26;45.52;99770.97;5025905;28;19929;-72
2023/10/30 10:28:54;;;;;;;;;;;;;;;22.37;45.83;99765.25;5028785;28;20408;-69
2023/10/30 10:31:19;;;;;;;;;;;;;;;22.51;45.09;99767.28;5030412;28;19932;-69
2023/10/30 10:33:48;;;;;;;;;;;;;;;22.83;44.21;99766.41;5030012;28;19917;-68
2023/10/30 10:36:13;;;;;;;;;;;;;;;22.95;44.00;99759.44;5018922;28;20373;-71
2023/10/30 10:38:39;;;;;;;;;;;;;;;22.95;44.64;99752.94;5028033;28;19917;-73
2023/10/30 10:41:05;;;;;;;;;;;;;;;22.82;44.43;99758.25;5024980;28;19944;-74
2023/10/30 10:43:31;;;;;;;;;;;;;;;22.94;44.62;99751.31;5028462;28;19928;-70
2023/10/30 10:45:57;;;;;;;;;;;;;;;22.94;44.80;99754.16;5018380;28;19971;-72
2023/10/30 10:48:26;;;;;;;;;;;;;;;23.08;44.55;99744.72;5027564;28;19921;-70
2023/10/30 10:50:53;;;;;;;;;;;;;;;23.11;43.82;99735.34;5013189;28;19963;-70
2023/10/30 10:53:19;;;;;;;;;;;;;;;23.08;44.14;99734.13;5014531;28;19932;-70
2023/10/30 10:55:46;;;;;;;;;;;;;;;23.30;43.95;99731.19;5027355;28;19921;-70
2023/10/30 10:58:14;;;;;;;;;;;;;;;23.24;43.48;99724.25;5011055;28;19913;-72
2023/10/30 11:00:47;;;;;;;;;;;;;;;23.09;43.77;99715.78;5028611;28;19964;-72
2023/10/30 11:03:13;;;;;;;;;;;;;;;23.24;44.02;99718.53;5024239;28;19918;-73
2023/10/30 11:05:38;;;;;;;;;;;;;;;23.35;43.50;99721.34;5019974;28;19974;-73
2023/10/30 11:08:07;;;;;;;;;;;;;;;23.58;43.44;99717.97;5020738;28;19921;-74
2023/10/30 11:10:34;;;;;;;;;;;;;;;23.37;42.73;99719.72;5023905;28;19921;-73
2023/10/30 11:13:14;;;;;;;;;;;;;;;23.14;44.43;99708.81;5035153;28;19967;-72
2023/10/30 11:15:59;;;;;;;;;;;;;;;23.44;43.64;99703.78;5025147;28;19964;-72
2023/10/30 11:18:27;;;;;;;;;;;;;;;23.68;42.82;99699.94;5013634;28;20060;-72
2023/10/30 11:21:11;;;;;;;;;;;;;;;23.79;42.86;99691.28;5024939;28;20008;-74
2023/10/30 11:23:46;;;;;;;;;;;;;;;23.74;42.41;99693.78;5019652;28;19918;-73
2023/10/30 11:26:30;;;;;;;;;;;;;;;23.73;42.88;99686.44;5019553;28;20320;-74
2023/10/30 11:28:58;;;;;;;;;;;;;;;23.57;43.39;99684.94;5021615;28;19918;-74
2023/10/30 11:31:28;;;;;;;;;;;;;;;23.60;43.32;99678.38;5020686;28;19917;-74
2023/10/30 11:34:06;;;;;;;;;;;;;;;23.65;42.86;99669.38;5026200;28;19917;-74
2023/10/30 11:36:34;;;;;;;;;;;;;;;23.85;42.88;99671.66;5025034;28;20396;-73
2023/10/30 11:38:59;;;;;;;;;;;;;;;24.13;42.30;99671.84;5023502;28;19949;-73
2023/10/30 11:41:25;;;;;;;;;;;;;;;24.22;41.73;99664.38;5020693;28;19964;-74
2023/10/30 11:43:50;;;;;;;;;;;;;;;24.34;41.86;99662.22;5024085;28;19971;-75
2023/10/30 11:46:21;;;;;;;;;;;;;;;24.39;41.60;99661.75;5027534;28;20744;-75
2023/10/30 11:48:46;;;;;;;;;;;;;;;24.55;41.29;99652.56;5025868;28;20779;-75
2023/10/30 11:51:12;;;;;;;;;;;;;;;24.74;40.58;99647.44;5028379;28;20000;-76
2023/10/30 11:53:41;;;;;;;;;;;;;;;24.81;40.12;99642.47;5023516;28;19948;-75
2023/10/30 11:56:08;;;;;;;;;;;;;;;25.02;40.25;99646.28;5032692;28;19920;-75
2023/10/30 11:58:34;;;;;;;;;;;;;;;25.13;39.94;99639.59;5019746;28;20383;-73
2023/10/30 12:00:59;;;;;;;;;;;;;;;24.96;40.13;99633.69;5024336;28;19923;-75
2023/10/30 12:03:25;;;;;;;;;;;;;;;25.02;40.52;99634.00;5024201;28;20331;-75
2023/10/30 12:05:51;;;;;;;;;;;;;;;25.03;40.39;99627.88;5030209;28;20016;-74
2023/10/30 12:08:16;;;;;;;;;;;;;;;24.95;41.16;99629.22;5015581;28;19913;-72
2023/10/30 12:10:42;;;;;;;;;;;;;;;24.83;41.88;99616.31;5024312;28;19921;-73
2023/10/30 12:13:08;;;;;;;;;;;;;;;24.80;41.52;99612.25;5021775;28;19922;-73
2023/10/30 12:15:34;;;;;;;;;;;;;;;24.59;41.03;99613.34;5028616;28;20407;-74
2023/10/30 12:17:59;;;;;;;;;;;;;;;24.75;41.81;99603.31;5026002;28;19956;-74
2023/10/30 12:20:24;;;;;;;;;;;;;;;24.79;42.57;99602.06;5030173;28;20378;-74
2023/10/30 12:22:53;;;;;;;;;;;;;;;25.04;41.66;99600.06;5023894;28;19941;-74
2023/10/30 12:25:19;;;;;;;;;;;;;;;24.92;42.41;99602.28;5028670;28;19925;-74
2023/10/30 12:27:44;;;;;;;;;;;;;;;24.92;41.84;99602.28;5015934;28;20006;-74
2023/10/30 12:30:14;;;;;;;;;;;;;;;24.77;42.29;99598.00;5024790;28;20402;-74
2023/10/30 12:32:39;;;;;;;;;;;;;;;24.81;42.35;99596.72;5022320;28;20396;-74
2023/10/30 12:35:22;;;;;;;;;;;;;;;24.81;43.00;99596.72;5017579;28;19932;-72
2023/10/30 12:37:48;;;;;;;;;;;;;;;25.11;42.51;99590.59;5027476;28;19917;-73
2023/10/30 12:40:13;;;;;;;;;;;;;;;25.04;42.60;99592.31;5020026;28;19936;-74
2023/10/30 12:42:46;;;;;;;;;;;;;;;24.87;42.85;99587.66;5023830;28;19925;-71
2023/10/30 12:45:11;;;;;;;;;;;;;;;24.97;43.10;99583.03;5025241;28;20312;-71